Aeroporto :
LOGIN :

Iscrizione | Disclaimer

   EN    FR    IT 

 










Sommario :    VFR   VFR Marginale   IFR   IFR Intensivo   IFR Molto Intensivo
Visibilità : 
Base nubi : 
>= 8 km
>= 3000ft
5 / 8 km
1000 / 3000 ft
1500m / 5 km
500 / 1000 ft
800 / 1500m
200 / 500 ft
< 800m
< 200 ft
Simboli :   Temporali  Nebbia  Neve Forte  Precipitazioni Forti  Vento > 20 kt
SIGMETs :   Varie  Temporali  Ghiacco  Turbolenza  Onda orograficha  Ceneri Vulcaniche







- Altitudine del aeroporto : 16 ft
- Codice IATA : EAS


LESO - San Sebastian Fuenterrabia

ULTIMO METAR :
  • 230030Z AUTO VRB02KT 9000 NCD 14/13 Q1017

METARs OBSOLETI :
  • 230000Z AUTO 20002KT 9999 NCD 14/13 Q1017
  • 222330Z AUTO 20003KT 170V230 CAVOK 14/13 Q1017
  • 222300Z AUTO 21003KT 9999 NCD 14/13 Q1017
  • 222230Z AUTO VRB02KT 9999 NCD 15/13 Q1017
  • 222200Z AUTO 20003KT 9999 NCD 15/13 Q1017

TAF TAF LESO
Valido dal 23 a 00 ore il 24 a 00 ore UTC


222300Z 2300/2324 10003KT CAVOK TX20/2314Z TN12/2305Z
PROB40
TEMPO 2304/2307 3000 BR
BECMG 2306/2310 29010KT
PROB40
TEMPO 2312/2318 SCT030TCU
PROB40
TEMPO 2318/2324 3000 -RADZ BKN005 BKN010 BKN014
Nessun NOTAM noto per questo aeroporto.



MetMap, La meteo Aeronautica in un colpo d'occhio ! - Copyright ORBIFLY Dicembre 2007 - Disclaimer

ORBIFLY MET'MAP TEAM :

Programmazione e sviluppo : Alexandra Zaïnal
Concezione e sviluppo : Baudouin d'Aumeries
Co-Programmazione e sviluppo : Marc-Olivier Méhu
Supporto tecnico e logistico : Manuel Goepfert
Aiuto per la traduzione : Arnaldo La Scala

Contatto : metmap@orbifly.com




FONTI E CREDITI :

   NOAA